Time;durP1;ratioP1;P1;durP2;ratioP2;P2;SDS_P1;SDS_P2;PMS_P1;PMS_P2;Temp;Humidity;BMP_temperature;BMP_pressure;BME280_temperature;BME280_humidity;BME280_pressure;Samples;Min_cycle;Max_cycle;Signal;HPM_P1;HPM_P2
2022/09/11 00:01:14;;;;;;;9.03;5.90;;;;;;;16.33;69.35;99976.18;1771225;80;21833;-68
2022/09/11 00:03:42;;;;;;;10.57;6.23;;;;;;;16.31;69.42;99974.89;1765913;79;21628;-70
2022/09/11 00:06:12;;;;;;;9.03;5.67;;;;;;;16.30;69.56;99974.10;1771471;80;21787;-69
2022/09/11 00:08:40;;;;;;;10.90;6.40;;;;;;;16.31;69.66;99972.98;1771239;80;22232;-70
2022/09/11 00:11:15;;;;;;;10.10;6.57;;;;;;;16.28;69.69;99965.52;1770733;80;22235;-69
2022/09/11 00:13:41;;;;;;;7.67;5.80;;;;;;;16.28;69.87;99959.34;1776565;80;23522;-70
2022/09/11 00:16:26;;;;;;;8.30;5.60;;;;;;;16.27;69.99;99955.86;1784517;80;22175;-70
2022/09/11 00:18:55;;;;;;;9.13;5.93;;;;;;;16.26;70.08;99965.61;1767947;80;21783;-70
2022/09/11 00:21:21;;;;;;;11.70;6.83;;;;;;;16.22;70.17;99960.57;1772163;80;21772;-72
2022/09/11 00:23:48;;;;;;;10.10;6.10;;;;;;;16.21;70.30;99963.03;1768497;80;22042;-70
2022/09/11 00:26:17;;;;;;;8.67;5.63;;;;;;;16.21;70.37;99946.86;1772441;80;21669;-69
2022/09/11 00:28:44;;;;;;;8.83;6.00;;;;;;;16.22;70.48;99941.71;1768742;80;21603;-69
2022/09/11 00:31:23;;;;;;;7.40;5.90;;;;;;;16.22;70.55;99933.07;1770893;80;21722;-70
2022/09/11 00:33:52;;;;;;;8.63;6.30;;;;;;;16.22;70.62;99931.72;1766102;80;21681;-72
2022/09/11 00:36:23;;;;;;;7.93;6.10;;;;;;;16.25;70.68;99930.31;1772264;80;21764;-69
2022/09/11 00:38:52;;;;;;;8.18;7.17;;;;;;;16.27;70.69;99933.51;1772243;80;21744;-69
2022/09/11 00:41:26;;;;;;;8.53;5.87;;;;;;;16.27;70.72;99932.95;1772017;80;21046;-70
2022/09/11 00:44:07;;;;;;;8.73;6.20;;;;;;;16.29;70.78;99928.61;1763585;80;21808;-70
2022/09/11 00:46:50;;;;;;;11.00;6.13;;;;;;;16.29;70.79;99925.92;1747413;80;21627;-73
2022/09/11 00:49:29;;;;;;;10.00;6.30;;;;;;;16.30;70.84;99924.80;1771099;80;21708;-71
2022/09/11 00:52:15;;;;;;;9.07;6.03;;;;;;;16.32;70.94;99918.53;1768026;80;21694;-70
2022/09/11 00:54:56;;;;;;;7.90;5.80;;;;;;;16.35;70.91;99920.61;1748354;80;22185;-71
2022/09/11 00:57:26;;;;;;;8.77;5.97;;;;;;;16.33;70.86;99913.41;1765566;80;21737;-71
2022/09/11 00:59:54;;;;;;;10.60;5.87;;;;;;;16.32;70.89;99925.27;1748291;80;21619;-71
2022/09/11 01:02:21;;;;;;;9.67;6.73;;;;;;;16.31;70.95;99916.95;1772464;80;21745;-71
2022/09/11 01:04:49;;;;;;;9.17;6.17;;;;;;;16.28;71.06;99919.70;1771840;79;21764;-69
2022/09/11 01:07:16;;;;;;;9.27;6.23;;;;;;;16.30;71.06;99922.11;1767085;80;21767;-69
2022/09/11 01:09:44;;;;;;;8.43;6.40;;;;;;;16.30;71.15;99915.38;1767105;80;21741;-71
2022/09/11 01:12:38;;;;;;;10.77;6.10;;;;;;;16.29;71.22;99912.45;1711636;82;21674;-70
2022/09/11 01:15:30;;;;;;;10.60;6.70;;;;;;;16.31;71.29;99919.09;1711842;82;21726;-70
2022/09/11 01:18:29;;;;;;;9.77;6.30;;;;;;;16.36;71.18;99912.78;1695550;84;21359;-70
2022/09/11 01:21:11;;;;;;;8.83;6.27;;;;;;;16.40;71.40;99911.05;1695386;84;21647;-71
2022/09/11 01:24:32;;;;;;;10.20;7.28;;;;;;;16.43;71.46;99915.03;1695481;84;21754;-68
2022/09/11 01:27:25;;;;;;;10.20;6.60;;;;;;;16.43;71.45;99905.04;1700657;83;21112;-69
2022/09/11 01:30:08;;;;;;;7.70;5.57;;;;;;;16.44;71.50;99898.53;1766535;80;21650;-71
2022/09/11 01:33:08;;;;;;;7.43;6.17;;;;;;;16.41;71.60;99895.11;1764588;80;21780;-69
2022/09/11 01:35:57;;;;;;;9.63;6.60;;;;;;;16.37;71.73;99893.59;1767702;80;22247;-69
2022/09/11 01:38:42;;;;;;;8.30;6.23;;;;;;;16.33;71.97;99895.33;1710964;82;21696;-70
2022/09/11 01:41:17;;;;;;;9.37;6.60;;;;;;;16.35;72.18;99890.96;1710573;82;21705;-69
2022/09/11 01:43:50;;;;;;;7.93;5.90;;;;;;;16.34;72.31;99887.48;1710022;82;21794;-68
2022/09/11 01:46:23;;;;;;;10.77;6.23;;;;;;;16.36;72.42;99877.75;1699418;83;21636;-69
2022/09/11 01:49:07;;;;;;;7.23;6.00;;;;;;;16.36;72.55;99880.45;1767960;80;21721;-70
2022/09/11 01:51:34;;;;;;;8.80;6.10;;;;;;;16.39;72.64;99889.26;1765762;80;21594;-73
2022/09/11 01:54:03;;;;;;;9.10;5.67;;;;;;;16.44;72.79;99876.18;1769019;80;21682;-71
2022/09/11 01:56:44;;;;;;;8.00;5.93;;;;;;;16.43;72.79;99880.78;1766630;80;21734;-70
2022/09/11 01:59:13;;;;;;;9.97;6.33;;;;;;;16.47;72.84;99880.39;1768051;80;21725;-69
2022/09/11 02:01:44;;;;;;;8.63;6.27;;;;;;;16.51;72.89;99867.87;1712535;83;21719;-70
2022/09/11 02:04:26;;;;;;;9.67;6.23;;;;;;;16.54;72.89;99875.89;1712100;82;21676;-71
2022/09/11 02:07:01;;;;;;;7.67;6.60;;;;;;;16.57;72.87;99877.96;1680053;82;22234;-71
2022/09/11 02:09:40;;;;;;;7.73;6.07;;;;;;;16.58;72.87;99873.63;1708568;82;21624;-71
2022/09/11 02:12:11;;;;;;;8.80;6.53;;;;;;;16.60;72.91;99879.48;1706764;83;21794;-70
2022/09/11 02:14:45;;;;;;;8.17;6.23;;;;;;;16.63;72.92;99877.50;1772054;80;22253;-70
2022/09/11 02:17:42;;;;;;;9.20;6.20;;;;;;;16.70;72.70;99866.81;1744137;80;21674;-70
2022/09/11 02:20:09;;;;;;;9.27;6.37;;;;;;;16.70;72.70;99866.81;1766389;80;21055;-71
2022/09/11 02:22:35;;;;;;;8.10;6.40;;;;;;;16.68;72.86;99861.72;1710589;82;21642;-71
2022/09/11 02:25:03;;;;;;;8.40;6.63;;;;;;;16.69;72.91;99854.45;1693287;83;21805;-71
2022/09/11 02:27:32;;;;;;;7.53;6.03;;;;;;;16.69;72.91;99854.45;1694792;83;21102;-71
2022/09/11 02:29:59;;;;;;;8.50;5.47;;;;;;;16.77;73.37;99853.12;1729526;82;22392;-70
2022/09/11 02:32:27;;;;;;;8.77;6.40;;;;;;;16.77;73.37;99853.12;1749119;80;21105;-69
2022/09/11 02:34:54;;;;;;;7.40;6.30;;;;;;;16.76;73.00;99852.11;1770786;80;21864;-70
2022/09/11 02:37:33;;;;;;;8.00;6.00;;;;;;;16.76;73.15;99847.50;1771125;80;21655;-70
2022/09/11 02:40:37;;;;;;;8.00;5.83;;;;;;;16.76;73.15;99847.50;1770995;80;21061;-70
2022/09/11 02:43:33;;;;;;;7.80;5.90;;;;;;;16.77;73.02;99843.69;1743082;80;22223;-72
2022/09/11 02:46:35;;;;;;;7.77;6.03;;;;;;;16.77;73.02;99843.69;1741941;81;21031;-70
2022/09/11 02:49:25;;;;;;;8.05;5.85;;;;;;;16.77;72.93;99843.69;1712264;83;20975;-70
2022/09/11 02:52:19;;;;;;;7.50;5.60;;;;;;;16.80;73.28;99852.50;1711193;83;21171;-71
2022/09/11 02:55:09;;;;;;;9.30;6.10;;;;;;;16.83;73.25;99848.37;1685091;83;20939;-70
2022/09/11 02:57:58;;;;;;;7.33;5.70;;;;;;;16.83;73.27;99838.94;1712145;83;21082;-70
2022/09/11 03:00:24;;;;;;;7.40;6.40;;;;;;;16.86;73.33;99845.05;1711779;83;21703;-70
2022/09/11 03:02:52;;;;;;;8.07;5.83;;;;;;;16.90;73.27;99842.52;1692339;83;21051;-71
2022/09/11 03:05:22;;;;;;;9.70;6.83;;;;;;;16.93;73.30;99851.33;1712087;83;22242;-70
2022/09/11 03:07:49;;;;;;;8.40;6.53;;;;;;;17.00;73.40;99853.78;1712243;83;21411;-70
2022/09/11 03:10:16;;;;;;;8.93;6.27;;;;;;;17.00;73.40;99853.78;1712331;83;21079;-71
2022/09/11 03:12:42;;;;;;;8.13;6.57;;;;;;;17.05;73.41;99861.73;1712542;83;21072;-70
2022/09/11 03:15:10;;;;;;;7.33;5.67;;;;;;;17.05;73.41;99861.73;1711900;83;21053;-71
2022/09/11 03:17:37;;;;;;;10.37;6.80;;;;;;;17.14;73.97;99871.16;1712226;83;21763;-71
2022/09/11 03:20:05;;;;;;;8.20;5.90;;;;;;;17.14;73.97;99871.16;1711971;82;21003;-71
2022/09/11 03:22:31;;;;;;;10.90;6.93;;;;;;;17.19;73.66;99868.88;1696473;84;21052;-70
2022/09/11 03:24:58;;;;;;;13.03;6.77;;;;;;;17.24;73.69;99864.13;1696177;84;21008;-69
2022/09/11 03:27:28;;;;;;;9.40;6.67;;;;;;;17.30;73.68;99862.03;1704270;84;20973;-71
2022/09/11 03:29:55;;;;;;;11.23;6.93;;;;;;;17.36;73.62;99870.21;1704263;84;21108;-71
2022/09/11 03:32:23;;;;;;;12.87;7.10;;;;;;;17.40;73.55;99877.11;1705329;84;21036;-74
2022/09/11 03:34:51;;;;;;;11.03;6.90;;;;;;;17.43;73.44;99878.62;1704984;84;20957;-71
2022/09/11 03:37:25;;;;;;;9.23;6.23;;;;;;;17.47;73.31;99874.72;1704528;84;20973;-71
2022/09/11 03:39:47;;;;;;;9.13;5.30;;;;;;;17.49;73.20;99879.25;1701695;83;21021;-71
2022/09/11 03:42:17;;;;;;;6.23;4.87;;;;;;;17.53;73.07;99880.20;1704177;84;21158;-71
2022/09/11 03:44:45;;;;;;;6.70;4.37;;;;;;;17.55;72.95;99884.17;1703964;84;21024;-69
2022/09/11 03:47:13;;;;;;;5.60;4.73;;;;;;;17.56;72.87;99891.15;1708951;83;21059;-69
2022/09/11 03:49:44;;;;;;;6.93;4.80;;;;;;;17.50;72.76;99897.03;1715417;83;21143;-70
2022/09/11 03:52:13;;;;;;;7.85;4.62;;;;;;;17.44;72.87;99903.17;1696803;83;21063;-71
2022/09/11 03:54:47;;;;;;;6.33;4.00;;;;;;;17.44;72.98;99905.05;1710658;83;21199;-71
2022/09/11 03:57:14;;;;;;;4.60;3.80;;;;;;;17.43;73.10;99898.86;1784748;80;21042;-71
2022/09/11 03:59:44;;;;;;;6.33;4.20;;;;;;;17.43;73.11;99904.82;1778229;80;21077;-70
2022/09/11 04:02:14;;;;;;;4.97;3.30;;;;;;;17.41;73.11;99906.51;1771107;80;21094;-70
2022/09/11 04:04:44;;;;;;;3.17;2.40;;;;;;;17.40;73.08;99915.70;1758588;80;20970;-71
2022/09/11 04:07:15;;;;;;;3.17;2.20;;;;;;;17.31;72.56;99925.72;1784673;80;21233;-71
2022/09/11 04:09:51;;;;;;;3.10;2.17;;;;;;;17.15;72.32;99917.85;1752642;80;21067;-70
2022/09/11 04:12:25;;;;;;;3.03;2.07;;;;;;;16.96;72.32;99925.67;1738226;80;21051;-71
2022/09/11 04:14:55;;;;;;;3.40;2.10;;;;;;;16.80;72.54;99933.97;1720250;82;21003;-71
2022/09/11 04:17:23;;;;;;;2.77;2.00;;;;;;;16.66;72.66;99935.41;1731799;81;20983;-72
2022/09/11 04:19:51;;;;;;;5.03;2.60;;;;;;;16.57;72.81;99934.02;1750317;81;21305;-71
2022/09/11 04:22:17;;;;;;;3.07;2.13;;;;;;;16.50;73.01;99943.67;1750559;82;21023;-72
2022/09/11 04:24:45;;;;;;;3.30;2.33;;;;;;;16.43;73.22;99938.73;1750563;82;21003;-71
2022/09/11 04:27:26;;;;;;;3.47;2.40;;;;;;;16.37;73.40;99941.31;1750570;82;21690;-71
2022/09/11 04:30:08;;;;;;;3.30;2.40;;;;;;;16.36;73.52;99946.48;1750418;82;21622;-71
2022/09/11 04:32:34;;;;;;;4.33;2.33;;;;;;;16.34;73.65;99944.08;1750689;81;21667;-71
2022/09/11 04:35:02;;;;;;;3.10;2.30;;;;;;;16.32;74.12;99944.13;1750385;82;22129;-71
2022/09/11 04:37:34;;;;;;;3.27;2.40;;;;;;;16.34;73.95;99948.12;1750588;81;21008;-71
2022/09/11 04:40:00;;;;;;;4.63;2.67;;;;;;;16.34;73.95;99948.12;1750485;82;21024;-71
2022/09/11 04:42:27;;;;;;;3.20;2.20;;;;;;;16.30;73.88;99955.23;1750951;81;21008;-72
2022/09/11 04:44:53;;;;;;;2.70;2.00;;;;;;;16.25;73.43;99951.88;1742183;82;22299;-72
2022/09/11 04:47:20;;;;;;;2.53;1.93;;;;;;;16.21;73.26;99952.25;1763832;80;21672;-73
2022/09/11 04:49:47;;;;;;;2.23;1.50;;;;;;;15.97;72.08;99942.62;1771430;80;22167;-72
2022/09/11 04:52:14;;;;;;;3.77;2.23;;;;;;;15.97;72.08;99942.62;1771107;80;21477;-71
2022/09/11 04:54:42;;;;;;;4.93;2.80;;;;;;;15.89;71.54;99954.12;1758640;80;22243;-72
2022/09/11 04:57:09;;;;;;;6.70;4.10;;;;;;;15.80;71.41;99956.77;1719299;83;22308;-72
2022/09/11 04:59:38;;;;;;;4.90;3.07;;;;;;;15.79;71.42;99966.48;1719253;83;22224;-72
2022/09/11 05:02:07;;;;;;;4.37;2.27;;;;;;;15.73;71.33;99965.01;1719368;82;21756;-72
2022/09/11 05:04:36;;;;;;;4.73;1.67;;;;;;;15.70;71.36;99970.48;1747948;80;21733;-71
2022/09/11 05:07:03;;;;;;;2.90;1.50;;;;;;;15.70;71.34;99968.58;1750478;82;21674;-72
2022/09/11 05:09:30;;;;;;;3.33;1.43;;;;;;;15.68;71.11;99967.28;1750553;82;22231;-72
2022/09/11 05:11:58;;;;;;;2.30;1.37;;;;;;;15.65;71.07;99971.34;1750522;81;21610;-73
2022/09/11 05:14:28;;;;;;;2.40;1.50;;;;;;;15.65;70.92;99972.69;1750516;81;21715;-72
2022/09/11 05:16:55;;;;;;;2.70;1.10;;;;;;;15.65;70.86;99965.95;1744178;82;21697;-73
2022/09/11 05:19:25;;;;;;;2.20;1.50;;;;;;;15.67;70.83;99968.39;1741729;82;21678;-73
2022/09/11 05:21:51;;;;;;;2.83;1.53;;;;;;;15.70;70.84;99967.78;1749130;82;22154;-73
2022/09/11 05:24:19;;;;;;;2.50;1.60;;;;;;;15.76;70.80;99967.09;1750492;81;21884;-72
2022/09/11 05:26:45;;;;;;;3.77;1.67;;;;;;;15.79;70.77;99969.97;1750480;82;21658;-73
2022/09/11 05:29:14;;;;;;;2.03;1.30;;;;;;;15.82;70.63;99976.64;1750590;81;21654;-72
2022/09/11 05:31:46;;;;;;;2.80;1.30;;;;;;;15.82;70.33;99976.64;1750011;81;21661;-73
2022/09/11 05:34:16;;;;;;;1.73;1.00;;;;;;;15.77;70.05;99982.17;1750849;82;21760;-73
2022/09/11 05:36:44;;;;;;;1.83;1.20;;;;;;;15.75;70.06;99989.74;1750634;81;21642;-72
2022/09/11 05:39:11;;;;;;;3.00;1.70;;;;;;;15.74;69.98;99992.20;1750494;82;21720;-73
2022/09/11 05:41:39;;;;;;;4.27;2.13;;;;;;;15.70;69.89;99994.70;1750658;82;21630;-73
2022/09/11 05:44:06;;;;;;;4.17;2.10;;;;;;;15.70;69.94;99990.11;1750408;82;21756;-71
2022/09/11 05:46:33;;;;;;;2.93;1.80;;;;;;;15.69;69.89;99989.88;1711013;82;22177;-73
2022/09/11 05:49:02;;;;;;;2.13;1.60;;;;;;;15.73;69.87;99981.16;1710835;82;21903;-73
2022/09/11 05:51:29;;;;;;;2.20;1.30;;;;;;;15.73;69.80;99976.60;1711366;82;22204;-73
2022/09/11 05:53:57;;;;;;;3.63;1.80;;;;;;;15.72;69.80;99976.33;1712069;83;22243;-72
2022/09/11 05:56:25;;;;;;;3.30;1.90;;;;;;;15.71;69.84;99976.89;1710226;82;21679;-73
2022/09/11 05:58:53;;;;;;;2.37;1.20;;;;;;;15.79;70.00;99975.91;1696805;84;21637;-74
2022/09/11 06:01:25;;;;;;;3.47;2.20;;;;;;;15.87;69.85;99973.28;1696440;84;22361;-72
2022/09/11 06:03:53;;;;;;;2.35;1.60;;;;;;;15.89;69.58;99972.97;1696732;84;21804;-73
2022/09/11 06:06:21;;;;;;;2.00;1.27;;;;;;;15.94;69.48;99981.73;1713252;83;21095;-73
2022/09/11 06:08:48;;;;;;;1.70;1.20;;;;;;;15.94;69.33;99979.03;1774849;80;21732;-72
2022/09/11 06:11:17;;;;;;;2.13;1.30;;;;;;;15.98;69.37;99979.21;1742325;81;21672;-73
2022/09/11 06:13:48;;;;;;;1.80;1.10;;;;;;;16.01;69.18;99978.60;1711758;83;21729;-71
2022/09/11 06:16:19;;;;;;;3.67;1.90;;;;;;;16.03;69.05;99976.41;1712117;83;24820;-73
2022/09/11 06:18:48;;;;;;;1.70;1.20;;;;;;;16.07;68.66;99973.34;1701607;83;20997;-72
2022/09/11 06:21:21;;;;;;;1.83;1.23;;;;;;;16.10;68.36;99978.11;1772005;80;21603;-73
2022/09/11 06:23:51;;;;;;;1.47;1.10;;;;;;;16.12;67.92;99975.92;1771628;80;21667;-71
2022/09/11 06:26:22;;;;;;;1.83;1.30;;;;;;;16.09;67.65;99976.53;1777714;80;22085;-71
2022/09/11 06:28:52;;;;;;;1.77;0.97;;;;;;;16.01;67.40;99983.98;1770773;80;21682;-71
2022/09/11 06:31:23;;;;;;;1.60;1.27;;;;;;;15.98;67.64;99984.60;1764476;80;21623;-72
2022/09/11 06:33:50;;;;;;;2.07;1.20;;;;;;;15.99;67.88;99984.86;1761418;80;21711;-73
2022/09/11 06:36:25;;;;;;;2.43;1.20;;;;;;;16.07;67.93;99990.84;1712108;83;21373;-73
2022/09/11 06:38:54;;;;;;;4.20;1.97;;;;;;;16.11;67.79;99989.12;1711995;82;21818;-73
2022/09/11 06:41:21;;;;;;;2.07;1.30;;;;;;;16.15;67.63;99986.61;1732719;82;21737;-71
2022/09/11 06:43:48;;;;;;;1.73;1.30;;;;;;;16.27;67.66;99980.11;1704155;83;22267;-73
2022/09/11 06:46:20;;;;;;;2.60;1.30;;;;;;;16.27;67.66;99980.11;1781822;80;21026;-73
2022/09/11 06:48:49;;;;;;;2.77;1.20;;;;;;;16.41;67.65;99982.70;1784567;80;21698;-73
2022/09/11 06:51:19;;;;;;;1.70;1.17;;;;;;;16.57;67.67;99991.20;1780384;80;21160;-73
2022/09/11 06:53:48;;;;;;;2.70;1.40;;;;;;;16.69;67.28;99998.71;1711172;82;21019;-72
2022/09/11 06:56:17;;;;;;;8.37;2.43;;;;;;;16.70;66.57;100001.08;1711411;82;21054;-71
2022/09/11 06:58:45;;;;;;;3.97;1.33;;;;;;;16.77;66.80;100005.50;1710114;82;20996;-69
2022/09/11 07:01:14;;;;;;;1.80;1.20;;;;;;;16.90;66.78;100011.11;1709698;82;21129;-72
2022/09/11 07:03:47;;;;;;;1.53;1.30;;;;;;;17.04;66.37;100011.77;1708541;82;21079;-71
2022/09/11 07:06:27;;;;;;;2.73;1.50;;;;;;;17.14;65.78;100009.34;1758009;80;21538;-73
2022/09/11 07:09:01;;;;;;;2.03;1.30;;;;;;;17.07;64.74;100007.89;1712209;83;21035;-73
2022/09/11 07:11:33;;;;;;;2.50;1.20;;;;;;;17.06;64.83;100002.27;1711723;83;21549;-72
2022/09/11 07:14:04;;;;;;;1.30;1.00;;;;;;;17.02;64.32;99994.56;1710901;82;21132;-72
2022/09/11 07:16:32;;;;;;;1.40;1.00;;;;;;;16.94;64.34;100008.81;1692499;84;21585;-73
2022/09/11 07:19:00;;;;;;;1.30;1.17;;;;;;;16.93;64.45;100012.63;1684369;85;21028;-72
2022/09/11 07:21:27;;;;;;;1.50;1.03;;;;;;;16.97;64.53;100017.63;1683836;85;21597;-73
2022/09/11 07:23:58;;;;;;;2.80;1.17;;;;;;;17.02;64.49;100025.59;1704538;83;21145;-73
2022/09/11 07:26:27;;;;;;;1.50;1.20;;;;;;;17.12;64.36;100027.20;1691832;84;21089;-72
2022/09/11 07:28:58;;;;;;;2.12;1.30;;;;;;;17.21;64.04;100021.28;1692043;84;25102;-72
2022/09/11 07:31:31;;;;;;;1.90;1.30;;;;;;;17.18;63.23;100019.77;1691748;84;21059;-73
2022/09/11 07:33:59;;;;;;;2.10;1.23;;;;;;;17.09;62.26;100019.17;1691765;84;21031;-72
2022/09/11 07:36:30;;;;;;;2.00;1.20;;;;;;;17.02;62.41;100022.89;1691931;84;21016;-73
2022/09/11 07:38:58;;;;;;;1.63;1.20;;;;;;;16.97;62.55;100025.72;1691874;84;21127;-72
2022/09/11 07:41:30;;;;;;;1.33;1.23;;;;;;;16.94;62.69;100018.25;1701274;83;21425;-73
2022/09/11 07:43:59;;;;;;;3.63;1.60;;;;;;;16.95;62.56;100006.93;1712242;82;21011;-73
2022/09/11 07:46:30;;;;;;;2.17;1.10;;;;;;;17.07;62.67;100001.70;1711870;82;20955;-73
2022/09/11 07:48:57;;;;;;;1.77;1.10;;;;;;;17.21;62.46;100001.57;1692122;83;21015;-74
2022/09/11 07:51:25;;;;;;;1.43;1.20;;;;;;;17.33;62.05;99998.50;1712043;83;21653;-73
2022/09/11 07:53:55;;;;;;;1.57;1.07;;;;;;;17.37;61.54;99999.22;1712019;82;21602;-74
2022/09/11 07:56:24;;;;;;;1.13;1.00;;;;;;;17.40;61.32;99995.34;1711960;82;21007;-70
2022/09/11 07:58:53;;;;;;;1.77;1.20;;;;;;;17.55;61.78;99996.79;1711889;82;21113;-72
2022/09/11 08:01:24;;;;;;;2.80;1.40;;;;;;;17.74;61.64;100001.33;1711997;82;21026;-71
2022/09/11 08:04:04;;;;;;;2.30;1.40;;;;;;;17.90;60.76;100005.72;1716132;82;21057;-71
2022/09/11 08:06:34;;;;;;;1.87;1.40;;;;;;;17.89;59.92;100013.57;1712286;82;21038;-71
2022/09/11 08:09:07;;;;;;;2.63;1.40;;;;;;;17.84;59.95;100004.85;1712096;82;22159;-73
2022/09/11 08:11:40;;;;;;;2.47;1.40;;;;;;;17.71;59.80;99997.91;1712423;82;21210;-72
2022/09/11 08:14:08;;;;;;;2.23;1.27;;;;;;;17.52;60.54;100004.17;1698930;84;21024;-71
2022/09/11 08:16:35;;;;;;;2.67;1.50;;;;;;;17.56;60.93;100002.42;1704996;84;21150;-74
2022/09/11 08:19:02;;;;;;;1.50;1.30;;;;;;;17.62;60.92;99997.66;1704757;84;21056;-72
2022/09/11 08:21:30;;;;;;;3.23;1.40;;;;;;;17.72;61.14;99991.95;1711251;83;21116;-73
2022/09/11 08:23:57;;;;;;;1.60;1.40;;;;;;;17.83;60.71;99985.13;1718206;83;21020;-73
2022/09/11 08:26:27;;;;;;;1.50;1.30;;;;;;;17.91;60.41;99993.00;1784483;80;20970;-73
2022/09/11 08:28:57;;;;;;;1.70;1.40;;;;;;;17.99;60.20;99986.22;1782816;80;21194;-72
2022/09/11 08:31:26;;;;;;;1.70;1.37;;;;;;;18.09;59.97;99989.14;1763613;80;21101;-73
2022/09/11 08:33:55;;;;;;;3.73;1.50;;;;;;;18.18;59.92;99987.22;1749417;80;21085;-72
2022/09/11 08:36:21;;;;;;;1.97;1.57;;;;;;;18.30;59.38;99990.62;1768336;80;22158;-73
2022/09/11 08:38:48;;;;;;;1.90;1.50;;;;;;;18.24;59.07;99987.86;1712322;83;21085;-73
2022/09/11 08:42:02;;;;;;;2.03;1.30;;;;;;;18.17;58.70;99987.56;1712070;83;21128;-74
2022/09/11 08:44:43;;;;;;;1.73;1.20;;;;;;;18.19;59.31;99990.72;1703595;83;21008;-73
2022/09/11 08:47:29;;;;;;;2.67;1.40;;;;;;;18.30;59.10;99993.89;1766785;80;21030;-73
2022/09/11 08:50:24;;;;;;;1.93;1.60;;;;;;;18.39;59.06;100001.40;1771095;80;20995;-74
2022/09/11 08:52:53;;;;;;;2.80;1.60;;;;;;;18.51;59.22;99990.14;1736541;82;21051;-73
2022/09/11 08:55:39;;;;;;;2.00;1.40;;;;;;;18.68;58.59;99994.69;1760736;80;21042;-73
2022/09/11 08:58:45;;;;;;;2.07;1.40;;;;;;;18.76;58.65;99989.06;1785021;80;21474;-72
2022/09/11 09:01:27;;;;;;;2.93;1.53;;;;;;;18.83;58.30;99998.81;1783604;80;21046;-72
2022/09/11 09:04:15;;;;;;;2.20;1.73;;;;;;;18.97;58.32;99998.02;1721156;82;21662;-74
2022/09/11 09:07:06;;;;;;;1.97;1.40;;;;;;;19.10;58.44;99992.70;1720683;83;21007;-73
2022/09/11 09:09:44;;;;;;;3.07;1.80;;;;;;;19.18;57.26;99997.25;1720721;82;21191;-73
2022/09/11 09:12:23;;;;;;;2.50;1.80;;;;;;;19.04;57.22;99998.85;1765681;80;21035;-73
2022/09/11 09:15:19;;;;;;;2.80;2.00;;;;;;;19.00;57.36;99997.14;1769838;80;21061;-72
2022/09/11 09:17:59;;;;;;;3.50;2.00;;;;;;;19.05;57.59;99991.52;1759988;80;21033;-73
2022/09/11 09:20:39;;;;;;;4.33;2.40;;;;;;;19.10;57.48;99994.84;1784169;80;38595;-73
2022/09/11 09:23:23;;;;;;;2.75;1.98;;;;;;;19.07;57.60;99992.00;1774816;80;21290;-74
2022/09/11 09:25:52;;;;;;;3.03;2.00;;;;;;;19.02;57.64;99992.98;1750544;82;21380;-74
2022/09/11 09:28:28;;;;;;;4.60;2.87;;;;;;;18.98;57.86;99990.11;1711800;82;20976;-73
2022/09/11 09:30:58;;;;;;;3.73;2.37;;;;;;;18.95;57.62;99993.50;1711607;82;21498;-74
2022/09/11 09:33:35;;;;;;;4.90;2.83;;;;;;;18.88;57.83;99992.41;1702885;83;21017;-73
2022/09/11 09:36:20;;;;;;;4.90;3.07;;;;;;;18.87;57.97;99994.89;1772459;80;22077;-73
2022/09/11 09:38:48;;;;;;;4.90;2.93;;;;;;;18.86;57.77;99990.05;1743591;81;20990;-73
2022/09/11 09:41:59;;;;;;;4.03;3.10;;;;;;;18.84;58.21;99994.98;1712027;83;20956;-73
2022/09/11 09:44:51;;;;;;;4.47;3.20;;;;;;;18.88;58.67;99998.61;1700918;83;28410;-72
2022/09/11 09:47:19;;;;;;;5.03;3.12;;;;;;;18.89;58.68;99997.52;1787655;80;21004;-73
2022/09/11 09:49:47;;;;;;;4.47;3.03;;;;;;;18.90;58.45;99995.03;1786534;80;21130;-73
2022/09/11 09:52:23;;;;;;;4.20;2.93;;;;;;;18.87;58.05;99995.67;1773516;80;21050;-73
2022/09/11 09:54:59;;;;;;;5.33;3.73;;;;;;;18.78;57.92;99992.78;1710932;82;21388;-73
2022/09/11 09:57:33;;;;;;;5.50;3.60;;;;;;;18.63;58.25;99996.24;1710924;82;20995;-71
2022/09/11 10:00:14;;;;;;;6.00;3.97;;;;;;;18.63;58.53;99999.51;1705819;83;21056;-72
2022/09/11 10:02:57;;;;;;;8.13;4.50;;;;;;;18.47;58.71;99997.33;1765102;80;21339;-73
2022/09/11 10:05:28;;;;;;;6.55;4.42;;;;;;;18.42;59.25;99998.05;1770597;79;21066;-73
2022/09/11 10:07:58;;;;;;;5.37;3.95;;;;;;;18.44;59.36;99997.97;1766988;80;21063;-73
2022/09/11 10:10:35;;;;;;;4.80;3.45;;;;;;;18.49;59.45;99999.69;1770372;80;21082;-73
2022/09/11 10:13:16;;;;;;;5.77;3.37;;;;;;;18.54;59.26;99997.39;1771292;80;20971;-73
2022/09/11 10:15:42;;;;;;;4.63;3.50;;;;;;;18.59;59.20;99995.84;1766522;80;21930;-73
2022/09/11 10:18:36;;;;;;;4.87;3.60;;;;;;;18.66;59.52;99994.80;1784423;80;20928;-72
2022/09/11 10:21:22;;;;;;;7.23;3.73;;;;;;;18.77;59.72;99991.20;1782484;80;21074;-73
2022/09/11 10:23:57;;;;;;;6.67;4.00;;;;;;;18.86;59.94;99994.10;1762407;80;21010;-73
2022/09/11 10:26:42;;;;;;;8.60;5.07;;;;;;;18.91;59.77;99993.90;1757424;80;21031;-73
2022/09/11 10:29:23;;;;;;;6.60;4.87;;;;;;;18.94;59.45;99990.55;1712354;83;21342;-73
2022/09/11 10:31:55;;;;;;;7.05;5.00;;;;;;;18.91;59.46;99987.70;1695933;83;21070;-72
2022/09/11 10:34:24;;;;;;;8.33;5.10;;;;;;;18.89;59.61;99983.19;1703726;83;21096;-74
2022/09/11 10:36:59;;;;;;;7.50;5.17;;;;;;;18.84;59.57;99976.03;1754961;80;21083;-73
2022/09/11 10:39:30;;;;;;;6.97;4.80;;;;;;;18.94;59.83;99975.66;1712204;83;20975;-73
2022/09/11 10:42:00;;;;;;;10.10;5.40;;;;;;;19.04;59.69;99973.70;1710689;83;21221;-73
2022/09/11 10:44:28;;;;;;;8.58;5.53;;;;;;;19.14;59.35;99970.05;1711077;82;21493;-73
2022/09/11 10:47:25;;;;;;;8.40;5.67;;;;;;;19.27;59.16;99968.78;1711009;82;21148;-74
2022/09/11 10:50:20;;;;;;;11.60;6.03;;;;;;;19.43;58.92;99967.85;1709599;82;20972;-73
2022/09/11 10:52:58;;;;;;;9.47;6.10;;;;;;;19.62;58.70;99962.54;1712147;83;21097;-73
2022/09/11 10:55:39;;;;;;;8.83;6.17;;;;;;;19.72;58.03;99963.52;1696121;84;22045;-73
2022/09/11 10:58:16;;;;;;;8.70;5.77;;;;;;;19.72;57.94;99959.45;1695411;84;21525;-73
2022/09/11 11:00:43;;;;;;;7.97;6.27;;;;;;;19.71;57.98;99961.94;1704071;84;21512;-73
2022/09/11 11:03:22;;;;;;;9.80;6.60;;;;;;;19.72;58.19;99952.67;1704446;84;21117;-73
2022/09/11 11:06:31;;;;;;;9.70;6.43;;;;;;;19.73;58.31;99948.05;1704192;83;21081;-71
2022/09/11 11:09:21;;;;;;;8.33;6.00;;;;;;;19.81;58.17;99943.91;1712243;83;21123;-73
2022/09/11 11:12:04;;;;;;;7.67;5.20;;;;;;;19.91;57.49;99946.77;1705856;83;21047;-73
2022/09/11 11:14:38;;;;;;;;;;;;;;;19.91;57.18;99946.77;1719350;83;21086;-73
2022/09/11 11:17:28;;;;;;;6.10;4.90;;;;;;;19.82;57.22;99946.05;1716522;83;20207;-74
2022/09/11 11:20:18;;;;;;;7.07;5.00;;;;;;;19.76;57.39;99946.81;1718665;83;21058;-72
2022/09/11 11:23:21;;;;;;;6.27;4.30;;;;;;;19.84;57.24;99950.02;1718897;83;21155;-72
2022/09/11 11:26:07;;;;;;;;;;;;;;;19.97;57.12;99950.03;1717105;83;21026;-74
2022/09/11 11:29:06;;;;;;;6.70;4.53;;;;;;;20.04;57.01;99954.34;1716917;83;20449;-73
2022/09/11 11:32:00;;;;;;;5.83;4.83;;;;;;;20.05;56.78;99948.60;1716674;83;21023;-76
2022/09/11 11:35:07;;;;;;;5.97;4.60;;;;;;;20.08;56.70;99952.56;1714447;83;21588;-74
2022/09/11 11:37:39;;;;;;;6.47;4.67;;;;;;;20.08;56.18;99949.28;1704418;84;21142;-73
2022/09/11 11:40:18;;;;;;;;;;;;;;;19.83;56.26;99948.41;1706574;84;21019;-73
2022/09/11 11:42:52;;;;;;;7.33;4.90;;;;;;;19.73;56.57;99951.54;1704259;84;20436;-72
2022/09/11 11:45:33;;;;;;;8.10;5.03;;;;;;;19.72;56.93;99953.24;1702638;83;21097;-73
2022/09/11 11:48:04;;;;;;;7.35;5.10;;;;;;;19.71;56.72;99957.88;1704234;84;21785;-72
2022/09/11 11:50:54;;;;;;;6.12;5.10;;;;;;;19.72;56.93;99954.03;1704129;84;21226;-73
2022/09/11 11:53:31;;;;;;;6.93;5.40;;;;;;;19.76;57.05;99957.66;1704599;84;21469;-73
2022/09/11 11:56:33;;;;;;;6.80;5.57;;;;;;;19.76;56.94;99955.51;1704247;84;21011;-73
2022/09/11 11:59:25;;;;;;;6.75;5.55;;;;;;;19.74;56.93;99949.05;1721781;83;21015;-73
2022/09/11 12:02:01;;;;;;;8.70;6.43;;;;;;;19.75;56.99;99960.70;1726569;83;20992;-73
2022/09/11 12:04:53;;;;;;;7.57;6.00;;;;;;;19.73;56.89;99959.67;1770863;79;21317;-72
2022/09/11 12:07:34;;;;;;;7.15;5.60;;;;;;;19.75;56.82;99963.42;1763225;80;20971;-71